createdAt,value
2019-06-15T00:01:15.662Z,22.97
2019-06-15T00:03:45.658Z,22.92
2019-06-15T00:06:16.800Z,22.86
2019-06-15T00:08:47.305Z,22.83
2019-06-15T00:11:17.215Z,22.77
2019-06-15T00:13:47.222Z,22.72
2019-06-15T00:16:17.090Z,22.31
2019-06-15T00:18:47.020Z,22.62
2019-06-15T00:21:17.192Z,22.56
2019-06-15T00:23:47.044Z,22.53
2019-06-15T00:26:16.966Z,22.50
2019-06-15T00:28:48.430Z,22.45
2019-06-15T00:31:18.574Z,22.42
2019-06-15T00:33:49.010Z,22.38
2019-06-15T00:36:18.972Z,22.34
2019-06-15T00:38:48.804Z,22.32
2019-06-15T00:41:18.701Z,22.27
2019-06-15T00:43:49.226Z,22.22
2019-06-15T00:46:19.625Z,22.20
2019-06-15T00:48:49.857Z,22.19
2019-06-15T00:51:19.886Z,22.16
2019-06-15T00:53:52.083Z,22.17
2019-06-15T00:56:22.614Z,22.17
2019-06-15T00:58:53.036Z,22.16
2019-06-15T01:01:23.233Z,22.15
2019-06-15T01:03:54.824Z,22.12
2019-06-15T01:06:24.836Z,22.09
2019-06-15T01:08:54.964Z,22.04
2019-06-15T01:11:27.065Z,22.03
2019-06-15T01:13:58.318Z,22.02
2019-06-15T01:16:29.718Z,22.01
2019-06-15T01:18:59.844Z,22.00
2019-06-15T01:21:30.108Z,22.00
2019-06-15T01:24:00.561Z,21.97
2019-06-15T01:26:30.749Z,21.96
2019-06-15T01:29:01.312Z,21.93
2019-06-15T01:31:31.393Z,21.94
2019-06-15T01:34:05.813Z,21.88
2019-06-15T01:36:36.235Z,21.87
2019-06-15T01:39:06.582Z,21.86
2019-06-15T01:41:38.261Z,21.85
2019-06-15T01:44:08.102Z,21.81
2019-06-15T01:46:37.946Z,21.73
2019-06-15T01:49:07.933Z,21.71
2019-06-15T01:51:40.431Z,21.68
2019-06-15T01:54:13.830Z,21.64
2019-06-15T01:56:45.241Z,21.55
2019-06-15T01:59:15.242Z,21.51
2019-06-15T02:01:46.434Z,21.50
2019-06-15T02:04:17.523Z,21.45
2019-06-15T02:06:47.690Z,21.43
2019-06-15T02:09:17.939Z,21.40
2019-06-15T02:11:49.469Z,21.40
2019-06-15T02:14:20.708Z,21.38
2019-06-15T02:16:50.627Z,21.38
2019-06-15T02:19:20.533Z,21.36
2019-06-15T02:21:50.370Z,21.35
2019-06-15T02:24:20.232Z,21.35
2019-06-15T02:26:50.207Z,21.29
2019-06-15T02:29:23.152Z,21.25
2019-06-15T02:31:53.308Z,21.27
2019-06-15T02:34:23.270Z,21.29
2019-06-15T02:36:56.619Z,20.68
2019-06-15T02:39:26.700Z,21.25
2019-06-15T02:41:57.100Z,21.22
2019-06-15T02:44:27.155Z,21.22
2019-06-15T02:46:58.360Z,21.21
2019-06-15T02:49:28.984Z,21.22
2019-06-15T02:52:00.181Z,21.18
2019-06-15T02:54:30.095Z,21.18
2019-06-15T02:57:01.592Z,21.17
2019-06-15T02:59:33.086Z,21.14
2019-06-15T03:02:04.290Z,21.16
2019-06-15T03:04:35.411Z,21.17
2019-06-15T03:07:05.809Z,21.17
2019-06-15T03:09:36.075Z,21.16
2019-06-15T03:12:06.622Z,21.11
2019-06-15T03:14:36.464Z,21.09
2019-06-15T03:17:06.876Z,21.05
2019-06-15T03:19:37.649Z,21.06
2019-06-15T03:22:07.987Z,21.07
2019-06-15T03:24:38.036Z,21.08
2019-06-15T03:27:08.297Z,21.12
2019-06-15T03:29:38.303Z,21.13
2019-06-15T03:32:08.215Z,21.18
2019-06-15T03:34:38.146Z,21.22
2019-06-15T03:37:08.590Z,21.21
2019-06-15T03:39:39.024Z,21.27
2019-06-15T03:42:09.090Z,21.34
2019-06-15T03:44:39.119Z,21.39
2019-06-15T03:47:08.911Z,21.45
2019-06-15T03:49:39.943Z,21.49
2019-06-15T03:52:09.937Z,21.54
2019-06-15T03:54:39.975Z,21.54
2019-06-15T03:57:09.954Z,21.59
2019-06-15T03:59:40.334Z,21.64
2019-06-15T04:02:10.858Z,21.71
2019-06-15T04:04:41.400Z,21.74
2019-06-15T04:07:14.373Z,21.73
2019-06-15T04:09:44.433Z,21.75
2019-06-15T04:12:15.101Z,21.83
2019-06-15T04:14:46.237Z,21.89
2019-06-15T04:17:16.900Z,22.00
2019-06-15T04:19:47.482Z,22.09
2019-06-15T04:22:17.995Z,22.16
2019-06-15T04:24:48.810Z,22.20
2019-06-15T04:27:19.576Z,22.23
2019-06-15T04:29:49.717Z,22.34
2019-06-15T04:32:19.731Z,22.46
2019-06-15T04:34:49.825Z,22.56
2019-06-15T04:37:19.849Z,22.53
2019-06-15T04:39:49.869Z,22.58
2019-06-15T04:42:20.649Z,22.72
2019-06-15T04:44:53.685Z,22.81
2019-06-15T04:47:23.639Z,22.83
2019-06-15T04:49:53.917Z,22.85
2019-06-15T04:52:23.903Z,22.89
2019-06-15T04:54:54.006Z,22.90
2019-06-15T04:57:25.151Z,22.88
2019-06-15T04:59:55.008Z,22.84
2019-06-15T05:02:27.421Z,22.86
2019-06-15T05:04:57.398Z,22.86
2019-06-15T05:07:27.609Z,22.75
2019-06-15T05:09:59.912Z,22.66
2019-06-15T05:12:29.984Z,22.64
2019-06-15T05:14:59.890Z,22.71
2019-06-15T05:17:30.334Z,22.70
2019-06-15T05:20:01.517Z,22.71
2019-06-15T05:22:31.531Z,22.61
2019-06-15T05:25:02.001Z,22.53
2019-06-15T05:27:32.496Z,22.45
2019-06-15T05:30:02.976Z,22.43
2019-06-15T05:32:33.378Z,22.53
2019-06-15T05:35:06.686Z,22.64
2019-06-15T05:37:37.098Z,22.75
2019-06-15T05:40:08.857Z,22.86
2019-06-15T05:42:39.633Z,22.90
2019-06-15T05:45:11.052Z,22.96
2019-06-15T05:47:41.264Z,23.04
2019-06-15T05:50:11.377Z,23.05
2019-06-15T05:52:41.906Z,23.08
2019-06-15T05:55:12.269Z,23.10
2019-06-15T05:57:42.315Z,23.02
2019-06-15T06:00:13.212Z,22.99
2019-06-15T06:02:44.101Z,22.99
2019-06-15T06:05:15.505Z,22.93
2019-06-15T06:07:45.789Z,22.89
2019-06-15T06:10:17.831Z,22.94
2019-06-15T06:12:48.658Z,23.04
2019-06-15T06:15:19.239Z,22.65
2019-06-15T06:17:49.529Z,23.19
2019-06-15T06:20:20.310Z,22.71
2019-06-15T06:22:50.475Z,23.37
2019-06-15T06:25:23.759Z,23.48
2019-06-15T06:27:54.940Z,23.58
2019-06-15T06:30:30.273Z,23.10
2019-06-15T06:33:00.215Z,23.70
2019-06-15T06:35:30.814Z,23.78
2019-06-15T06:38:00.757Z,23.93
2019-06-15T06:40:31.113Z,24.04
2019-06-15T06:43:01.287Z,24.17
2019-06-15T06:45:31.904Z,23.85
2019-06-15T06:48:02.077Z,24.50
2019-06-15T06:50:32.034Z,24.64
2019-06-15T06:53:02.488Z,24.79
2019-06-15T06:55:33.171Z,24.97
2019-06-15T06:58:03.989Z,25.14
2019-06-15T07:00:34.689Z,25.32
2019-06-15T07:03:05.236Z,25.50
2019-06-15T07:05:35.716Z,25.74
2019-06-15T07:08:06.545Z,25.93
2019-06-15T07:10:37.366Z,26.14
2019-06-15T07:13:07.730Z,26.32
2019-06-15T07:15:39.457Z,26.55
2019-06-15T07:18:10.318Z,26.89
2019-06-15T07:20:40.445Z,27.21
2019-06-15T07:23:11.561Z,27.42
2019-06-15T07:25:43.032Z,27.72
2019-06-15T07:28:13.153Z,28.00
2019-06-15T07:30:43.185Z,28.13
2019-06-15T07:33:14.704Z,28.32
2019-06-15T07:35:47.003Z,28.53
2019-06-15T07:38:17.106Z,28.69
2019-06-15T07:40:47.615Z,28.82
2019-06-15T07:43:17.779Z,28.65
2019-06-15T07:45:48.189Z,28.62
2019-06-15T07:48:18.860Z,28.60
2019-06-15T07:50:48.837Z,28.33
2019-06-15T07:53:20.198Z,28.67
2019-06-15T07:55:50.354Z,28.62
2019-06-15T07:58:24.656Z,28.17
2019-06-15T08:00:55.323Z,28.63
2019-06-15T08:03:25.886Z,28.24
2019-06-15T08:05:56.086Z,28.68
2019-06-15T08:08:29.632Z,28.67
2019-06-15T08:10:59.582Z,28.74
2019-06-15T08:13:29.544Z,28.67
2019-06-15T08:15:59.911Z,28.79
2019-06-15T08:18:30.873Z,28.35
2019-06-15T08:21:01.003Z,29.13
2019-06-15T08:23:31.410Z,28.94
2019-06-15T08:26:01.521Z,29.13
2019-06-15T08:28:39.875Z,29.08
2019-06-15T08:31:03.387Z,29.03
2019-06-15T08:33:33.581Z,28.99
2019-06-15T08:36:04.026Z,29.10
2019-06-15T08:38:34.836Z,29.18
2019-06-15T08:41:05.689Z,29.31
2019-06-15T08:43:36.597Z,29.46
2019-06-15T08:46:08.332Z,29.57
2019-06-15T08:48:38.828Z,29.22
2019-06-15T08:51:11.155Z,30.03
2019-06-15T08:53:41.812Z,30.03
2019-06-15T08:56:14.247Z,29.75
2019-06-15T08:58:55.046Z,29.69
2019-06-15T09:01:18.125Z,29.34
2019-06-15T09:03:49.561Z,29.29
2019-06-15T09:06:21.067Z,29.30
2019-06-15T09:08:51.809Z,29.17
2019-06-15T09:11:26.072Z,29.35
2019-06-15T09:13:56.734Z,29.25
2019-06-15T09:16:30.665Z,29.04
2019-06-15T09:19:03.501Z,29.06
2019-06-15T09:21:34.529Z,29.23
2019-06-15T09:24:05.560Z,29.29
2019-06-15T09:26:42.037Z,29.09
2019-06-15T09:29:16.317Z,29.19
2019-06-15T09:31:46.976Z,29.25
2019-06-15T09:34:19.415Z,29.47
2019-06-15T09:36:54.082Z,29.48
2019-06-15T09:39:24.365Z,29.51
2019-06-15T09:41:57.459Z,29.42
2019-06-15T09:44:33.168Z,29.75
2019-06-15T09:47:05.111Z,29.98
2019-06-15T09:49:41.029Z,30.11
2019-06-15T09:52:16.359Z,30.21
2019-06-15T09:54:49.601Z,30.17
2019-06-15T09:57:21.694Z,30.17
2019-06-15T09:59:51.857Z,30.28
2019-06-15T10:02:27.102Z,30.35
2019-06-15T10:05:02.549Z,30.53
2019-06-15T10:07:33.550Z,30.72
2019-06-15T10:10:07.304Z,30.70
2019-06-15T10:12:40.147Z,30.50
2019-06-15T10:15:11.779Z,30.36
2019-06-15T10:17:43.514Z,30.16
2019-06-15T10:20:16.341Z,29.98
2019-06-15T10:22:47.228Z,29.74
2019-06-15T10:25:18.158Z,29.93
2019-06-15T10:27:50.954Z,30.11
2019-06-15T10:30:23.516Z,29.98
2019-06-15T10:32:53.798Z,29.98
2019-06-15T10:35:24.183Z,29.98
2019-06-15T10:37:59.461Z,29.91
2019-06-15T10:40:30.427Z,29.75
2019-06-15T10:43:12.408Z,29.71
2019-06-15T10:45:43.706Z,29.75
2019-06-15T10:48:18.233Z,29.53
2019-06-15T10:50:48.724Z,29.68
2019-06-15T10:53:21.626Z,29.59
2019-06-15T10:55:52.853Z,29.57
2019-06-15T10:58:23.982Z,29.63
2019-06-15T11:01:05.384Z,29.84
2019-06-15T11:03:37.618Z,29.79
2019-06-15T11:06:10.958Z,29.67
2019-06-15T11:08:41.595Z,29.92
2019-06-15T11:11:36.164Z,30.03
2019-06-15T11:14:32.265Z,30.10
2019-06-15T11:17:08.278Z,30.05
2019-06-15T11:19:39.924Z,29.87
2019-06-15T11:22:25.250Z,29.75
2019-06-15T11:25:06.189Z,29.87
2019-06-15T11:27:40.930Z,30.05
2019-06-15T11:30:14.135Z,30.19
2019-06-15T11:32:44.463Z,30.16
2019-06-15T11:35:17.998Z,29.90
2019-06-15T11:37:48.339Z,29.91
2019-06-15T11:40:23.914Z,29.75
2019-06-15T11:42:55.099Z,29.82
2019-06-15T11:45:26.979Z,29.81
2019-06-15T11:47:58.774Z,29.83
2019-06-15T11:50:33.620Z,29.99
2019-06-15T11:53:05.960Z,30.33
2019-06-15T11:55:39.739Z,30.49
2019-06-15T11:58:13.396Z,30.61
2019-06-15T12:00:47.627Z,30.81
2019-06-15T12:03:25.460Z,30.90
2019-06-15T12:05:58.156Z,30.80
2019-06-15T12:08:34.309Z,30.84
2019-06-15T12:11:08.791Z,30.73
2019-06-15T12:13:42.800Z,30.15
2019-06-15T12:16:15.939Z,29.79
2019-06-15T12:18:46.252Z,29.89
2019-06-15T12:21:17.560Z,29.99
2019-06-15T12:23:52.242Z,29.70
2019-06-15T12:26:23.464Z,29.59
2019-06-15T12:28:57.700Z,29.36
2019-06-15T12:31:29.256Z,29.19
2019-06-15T12:34:00.845Z,29.34
2019-06-15T12:36:31.393Z,29.56
2019-06-15T12:39:03.624Z,29.44
2019-06-15T12:41:34.107Z,29.44
2019-06-15T12:44:06.810Z,29.42
2019-06-15T12:46:37.334Z,29.16
2019-06-15T12:49:12.349Z,29.24
2019-06-15T12:51:43.521Z,29.27
2019-06-15T12:54:13.757Z,29.34
2019-06-15T12:56:44.470Z,29.49
2019-06-15T12:59:15.459Z,29.73
2019-06-15T13:01:46.354Z,29.94
2019-06-15T13:04:27.434Z,30.24
2019-06-15T13:07:02.077Z,30.53
2019-06-15T13:09:33.967Z,30.71
2019-06-15T13:12:05.513Z,31.05
2019-06-15T13:14:37.264Z,30.87
2019-06-15T13:17:07.855Z,30.82
2019-06-15T13:19:38.803Z,31.09
2019-06-15T13:22:11.805Z,30.92
2019-06-15T13:24:46.922Z,31.11
2019-06-15T13:27:19.044Z,31.05
2019-06-15T13:29:53.049Z,31.01
2019-06-15T13:32:30.382Z,30.78
2019-06-15T13:35:00.581Z,30.43
2019-06-15T13:37:41.640Z,29.85
2019-06-15T13:40:04.015Z,30.13
2019-06-15T13:42:35.924Z,30.27
2019-06-15T13:45:10.602Z,30.20
2019-06-15T13:47:41.225Z,29.89
2019-06-15T13:50:12.948Z,29.75
2019-06-15T13:52:43.068Z,29.70
2019-06-15T13:55:17.771Z,29.68
2019-06-15T13:57:49.061Z,30.12
2019-06-15T14:00:21.205Z,30.11
2019-06-15T14:02:54.719Z,30.20
2019-06-15T14:05:25.050Z,29.69
2019-06-15T14:07:56.338Z,30.15
2019-06-15T14:10:31.322Z,30.24
2019-06-15T14:13:01.739Z,30.21
2019-06-15T14:15:35.208Z,30.38
2019-06-15T14:18:06.308Z,30.58
2019-06-15T14:20:37.879Z,30.69
2019-06-15T14:23:10.536Z,30.69
2019-06-15T14:25:40.734Z,30.69
2019-06-15T14:28:11.627Z,30.73
2019-06-15T14:30:48.864Z,30.96
2019-06-15T14:33:19.450Z,30.83
2019-06-15T14:35:52.472Z,30.86
2019-06-15T14:38:25.777Z,31.10
2019-06-15T14:40:56.228Z,30.98
2019-06-15T14:43:29.598Z,30.76
2019-06-15T14:46:03.574Z,30.65
2019-06-15T14:48:33.812Z,30.70
2019-06-15T14:51:04.982Z,30.59
2019-06-15T14:53:36.735Z,30.61
2019-06-15T14:56:07.676Z,30.27
2019-06-15T14:58:37.874Z,30.78
2019-06-15T15:01:09.619Z,30.99
2019-06-15T15:03:40.775Z,30.81
2019-06-15T15:06:11.598Z,30.43
2019-06-15T15:08:43.431Z,30.15
2019-06-15T15:11:17.123Z,30.36
2019-06-15T15:13:47.371Z,30.70
2019-06-15T15:16:18.012Z,30.81
2019-06-15T15:18:52.163Z,30.75
2019-06-15T15:21:23.504Z,30.68
2019-06-15T15:23:57.042Z,30.37
2019-06-15T15:26:28.146Z,30.75
2019-06-15T15:28:58.617Z,30.84
2019-06-15T15:31:31.129Z,30.74
2019-06-15T15:34:07.710Z,30.73
2019-06-15T15:36:36.960Z,30.82
2019-06-15T15:39:13.192Z,30.98
2019-06-15T15:41:46.837Z,30.97
2019-06-15T15:44:18.670Z,30.58
2019-06-15T15:46:49.445Z,30.28
2019-06-15T15:49:23.575Z,30.03
2019-06-15T15:51:56.630Z,30.17
2019-06-15T15:54:27.827Z,30.44
2019-06-15T15:57:07.664Z,30.68
2019-06-15T15:59:38.858Z,30.86
2019-06-15T16:02:10.311Z,30.99
2019-06-15T16:04:41.725Z,30.75
2019-06-15T16:07:18.147Z,30.69
2019-06-15T16:09:49.544Z,30.77
2019-06-15T16:12:23.315Z,30.70
2019-06-15T16:14:56.501Z,30.88
2019-06-15T16:17:27.802Z,30.45
2019-06-15T16:20:00.277Z,30.84
2019-06-15T16:22:36.972Z,30.89
2019-06-15T16:25:08.760Z,30.88
2019-06-15T16:27:38.861Z,30.89
2019-06-15T16:30:13.589Z,30.85
2019-06-15T16:32:44.029Z,30.31
2019-06-15T16:35:16.541Z,30.70
2019-06-15T16:37:51.913Z,30.66
2019-06-15T16:40:26.839Z,30.55
2019-06-15T16:42:57.477Z,30.42
2019-06-15T16:45:28.407Z,30.51
2019-06-15T16:47:59.232Z,30.76
2019-06-15T16:50:30.012Z,30.98
2019-06-15T16:53:01.018Z,31.03
2019-06-15T16:55:32.438Z,30.95
2019-06-15T16:58:03.760Z,30.96
2019-06-15T17:00:36.437Z,30.93
2019-06-15T17:03:21.047Z,30.68
2019-06-15T17:05:46.402Z,30.78
2019-06-15T17:08:17.375Z,30.97
2019-06-15T17:10:48.626Z,30.83
2019-06-15T17:13:19.249Z,30.96
2019-06-15T17:15:49.606Z,31.08
2019-06-15T17:18:19.839Z,31.33
2019-06-15T17:20:52.442Z,31.29
2019-06-15T17:23:27.409Z,31.40
2019-06-15T17:25:58.833Z,31.37
2019-06-15T17:31:27.159Z,31.42
2019-06-15T17:33:58.061Z,31.70
2019-06-15T17:36:31.016Z,31.87
2019-06-15T17:39:06.185Z,32.01
2019-06-15T17:41:37.073Z,32.32
2019-06-15T17:44:08.140Z,32.41
2019-06-15T17:46:46.195Z,32.18
2019-06-15T17:49:17.854Z,31.78
2019-06-15T17:51:49.262Z,31.17
2019-06-15T17:54:20.909Z,30.71
2019-06-15T17:56:52.083Z,30.29
2019-06-15T17:59:22.911Z,29.47
2019-06-15T18:01:54.214Z,29.00
2019-06-15T18:04:24.690Z,28.38
2019-06-15T18:06:56.782Z,28.15
2019-06-15T18:09:28.319Z,27.73
2019-06-15T18:11:59.550Z,27.54
2019-06-15T18:14:29.463Z,27.22
2019-06-15T18:17:04.330Z,27.12
2019-06-15T18:19:37.949Z,26.99
2019-06-15T18:22:09.169Z,26.79
2019-06-15T18:24:40.766Z,26.76
2019-06-15T18:27:17.378Z,26.64
2019-06-15T18:29:49.568Z,26.58
2019-06-15T18:32:20.852Z,26.33
2019-06-15T18:34:55.999Z,26.18
2019-06-15T18:37:26.574Z,25.42
2019-06-15T18:39:58.297Z,25.95
2019-06-15T18:42:29.397Z,25.82
2019-06-15T18:45:01.117Z,25.72
2019-06-15T18:47:32.133Z,25.67
2019-06-15T18:50:02.710Z,25.62
2019-06-15T18:52:33.393Z,25.57
2019-06-15T18:55:05.426Z,25.51
2019-06-15T18:57:37.683Z,25.34
2019-06-15T19:00:09.474Z,25.24
2019-06-15T19:02:43.529Z,25.09
2019-06-15T19:05:28.161Z,24.51
2019-06-15T19:08:12.414Z,24.85
2019-06-15T19:10:46.840Z,24.82
2019-06-15T19:13:17.330Z,24.70
2019-06-15T19:15:48.500Z,24.67
2019-06-15T19:18:19.844Z,24.63
2019-06-15T19:20:50.928Z,24.04
2019-06-15T19:23:28.522Z,24.55
2019-06-15T19:26:02.244Z,24.49
2019-06-15T19:28:37.064Z,24.43
2019-06-15T19:31:09.069Z,24.39
2019-06-15T19:33:40.437Z,24.30
2019-06-15T19:36:15.971Z,24.24
2019-06-15T19:38:49.965Z,24.13
2019-06-15T19:41:22.092Z,24.12
2019-06-15T19:43:57.137Z,24.07
2019-06-15T19:46:30.379Z,23.89
2019-06-15T19:49:03.140Z,23.84
2019-06-15T19:51:36.494Z,23.85
2019-06-15T19:54:15.949Z,23.76
2019-06-15T19:56:46.665Z,22.82
2019-06-15T19:59:20.613Z,23.09
2019-06-15T20:01:52.878Z,23.59
2019-06-15T20:04:26.884Z,23.51
2019-06-15T20:06:57.172Z,23.45
2019-06-15T20:09:28.802Z,23.42
2019-06-15T20:12:01.844Z,23.36
2019-06-15T20:14:36.847Z,23.28
2019-06-15T20:17:13.415Z,23.19
2019-06-15T20:20:08.644Z,23.17
2019-06-15T20:22:43.261Z,23.08
2019-06-15T20:25:26.848Z,22.98
2019-06-15T20:27:57.065Z,22.94
2019-06-15T20:30:29.166Z,22.88
2019-06-15T20:33:02.910Z,22.83
2019-06-15T20:35:35.961Z,22.78
2019-06-15T20:38:08.023Z,22.74
2019-06-15T20:40:43.982Z,22.66
2019-06-15T20:43:36.572Z,22.61
2019-06-15T20:46:12.296Z,21.95
2019-06-15T20:48:47.081Z,22.46
2019-06-15T20:51:24.684Z,22.42
2019-06-15T20:53:58.433Z,22.38
2019-06-15T20:56:38.375Z,22.33
2019-06-15T20:59:09.415Z,22.27
2019-06-15T21:01:39.988Z,22.21
2019-06-15T21:04:12.877Z,22.13
2019-06-15T21:06:46.424Z,22.11
2019-06-15T21:09:19.118Z,22.08
2019-06-15T21:11:53.263Z,22.03
2019-06-15T21:14:28.311Z,21.98
2019-06-15T21:17:00.763Z,21.98
2019-06-15T21:19:36.255Z,21.91
2019-06-15T21:22:10.821Z,21.86
2019-06-15T21:24:54.650Z,21.80
2019-06-15T21:27:30.223Z,21.76
2019-06-15T21:30:00.550Z,21.73
2019-06-15T21:32:31.926Z,21.71
2019-06-15T21:35:02.220Z,21.69
2019-06-15T21:37:32.417Z,21.64
2019-06-15T21:40:02.659Z,21.59
2019-06-15T21:42:36.011Z,21.55
2019-06-15T21:45:08.237Z,21.50
2019-06-15T21:47:46.460Z,21.48
2019-06-15T21:50:17.360Z,21.40
2019-06-15T21:52:49.257Z,21.39
2019-06-15T21:55:19.667Z,21.32
2019-06-15T21:57:50.867Z,21.26
2019-06-15T22:00:29.638Z,21.18
2019-06-15T22:03:03.162Z,21.14
2019-06-15T22:05:36.839Z,21.16
2019-06-15T22:08:06.909Z,21.16
2019-06-15T22:10:37.046Z,21.11
2019-06-15T22:13:09.637Z,21.05
2019-06-15T22:15:41.322Z,21.04
2019-06-15T22:18:27.109Z,21.05
2019-06-15T22:20:57.545Z,21.03
2019-06-15T22:23:28.181Z,20.98
2019-06-15T22:25:59.077Z,20.94
2019-06-15T22:28:29.554Z,20.92
2019-06-15T22:31:00.591Z,20.90
2019-06-15T22:33:31.655Z,20.28
2019-06-15T22:36:01.705Z,20.84
2019-06-15T22:38:32.812Z,20.82
2019-06-15T22:41:02.883Z,20.78
2019-06-15T22:43:36.239Z,20.75
2019-06-15T22:46:07.456Z,20.73
2019-06-15T22:48:38.928Z,20.70
2019-06-15T22:51:09.174Z,20.67
2019-06-15T22:53:39.159Z,20.61
2019-06-15T22:56:09.892Z,20.55
2019-06-15T22:58:40.045Z,20.55
2019-06-15T23:01:10.366Z,20.53
2019-06-15T23:03:40.500Z,20.53
2019-06-15T23:06:12.431Z,20.51
2019-06-15T23:08:42.779Z,20.51
2019-06-15T23:11:13.895Z,20.54
2019-06-15T23:13:46.176Z,20.53
2019-06-15T23:16:15.936Z,20.51
2019-06-15T23:18:46.944Z,20.47
2019-06-15T23:21:17.489Z,20.46
2019-06-15T23:23:47.857Z,20.42
2019-06-15T23:26:18.545Z,20.37
2019-06-15T23:28:48.506Z,20.31
2019-06-15T23:31:19.432Z,20.26
2019-06-15T23:33:49.240Z,20.22
2019-06-15T23:36:26.900Z,20.18
2019-06-15T23:38:57.211Z,20.18
2019-06-15T23:41:27.829Z,20.10
2019-06-15T23:43:57.875Z,19.45
2019-06-15T23:46:28.343Z,20.00
2019-06-15T23:48:59.049Z,19.97
2019-06-15T23:51:29.238Z,19.93
2019-06-15T23:53:59.515Z,19.88
2019-06-15T23:56:29.480Z,19.84
2019-06-15T23:58:59.320Z,19.78
